岡山グライダークラブ活動状況掲示板あなたは無料カウンター人目の訪問者です

岡山グライダークラブ
岡山市浦安南町639-1 岡南飛行場
 使用機:シャイベ式 SF25C型 ファルケ   JA2330
      ヴァレンティン式17E型 タイフーン  JA2342
 練習日:毎日曜日  クラブルーム:電話 086-265-1810
この掲示板は岡山グライダークラブの活動状況をお知らせする掲示板です。
!!!この掲示板は投稿規制をしています。!!!
クラブ関連各種情報は 岡山グライダークラブクラブルーム      を       .
  ブリーフイング情報は  岡山グライダークラブブリーフィングルーム  をご覧下さい。 .
※写真はクリックすると拡大して見ることが出来ます。
岡南飛行場へのアクセス等は 岡南飛行場管理事務所 をご覧ください。
クラブの ホームページ ができました。

 
5月31日
by OGC at 2020/6/1(月) 00:00:26 No.20200531235510  削除コメント
1477 x 1108 x 146,534バイト <この画像は大きいので別画面で表示します>
No.1

05月31日
本日の参加者
  会員      11名
  その他      0名


@本日の様子




METAR
RJOB 310000Z 09009KT 4000 RA BR BCFG FEW000 SCT003 BKN006 17/16 Q1017
RJOT 310000Z 07010KT 5000 -RA BR FEW000 SCT001 BKN004 17/17 Q1016
RJOA 310000Z 08010KT 2200 -RA BCFG BR FEW000 SCT002 BKN004 16/16 Q1016
TAF
RJOB 302308Z 3100/0106 08010KT 7000 -RA FEW003 SCT008 BKN015
     TEMPO 3100/3106 3000 RA BR BCFG FEW000 SCT003 BKN005
     TEMPO 3106/3110 4000 -RA BR FEW001 SCT003 BKN008
     TEMPO 0100/0106 4000 -SHRA BR FEW003 BKN008 BKN015
     BECMG 0103/0106 14005KT
RJOT 302310Z 3100/0106 08008KT 4000 -RA BR FEW002 SCT005 BKN008
     TEMPO 3100/3102 3000 RA BR FEW001 SCT003 BKN005
     TEMPO 3102/3104 3000 -RA BR FEW001 SCT003 BKN005
     BECMG 3104/3106 9999 NSW FEW010 SCT030 BKN050
RJOA 302309Z 3100/0106 10009KT 3000 BR BCFG FEW000 SCT005 BKN008
     TEMPO 3100/3109 1500 -RA BR BCFG FEW000 SCT003 BKN005
     TEMPO 0100/0106 1500 -SHRA BR BCFG FEW000 SCT003 BKN005


本日は、TAFを見ると夕方まで雨で飛べないと諦めていました。
しかし、そこは「晴れの国、岡山」、午後から雨が上がり、いつも通り訓練を行うことができました。



解散    18:50

1番機  13:30離陸 撤収機  18:25着陸 

SF25C JA2330 ファルケ     09Flt.2h25min  
17E   JA2342 タイフーン    02Flt.0h30min  
合計                    11Flt.2h55min

    << 戻る || ホームページ || 最新の掲示板へ